Time;durP1;ratioP1;P1;durP2;ratioP2;P2;SDS_P1;SDS_P2;PMS_P1;PMS_P2;Temp;Humidity;BMP_temperature;BMP_pressure;BME280_temperature;BME280_humidity;BME280_pressure;Samples;Min_cycle;Max_cycle;Signal;HPM_P1;HPM_P2
2023/07/01 00:01:05;;;;;;;4.60;2.30;;;16.50;99.90;;;;;;5066111;28;20284;-61
2023/07/01 00:03:33;;;;;;;2.78;2.00;;;16.50;99.90;;;;;;5066321;28;20232;-60
2023/07/01 00:06:01;;;;;;;3.15;1.67;;;16.40;99.90;;;;;;5054990;28;20197;-61
2023/07/01 00:08:31;;;;;;;2.97;1.58;;;16.40;99.90;;;;;;5062107;28;20676;-60
2023/07/01 00:11:00;;;;;;;2.22;1.88;;;16.40;99.90;;;;;;5068029;28;20340;-59
2023/07/01 00:13:28;;;;;;;2.35;1.70;;;16.40;99.90;;;;;;5070529;28;20204;-61
2023/07/01 00:15:56;;;;;;;2.20;1.75;;;16.40;99.90;;;;;;5071058;28;20239;-60
2023/07/01 00:18:24;;;;;;;6.95;2.10;;;16.30;99.90;;;;;;5071318;28;20208;-59
2023/07/01 00:20:52;;;;;;;1.85;1.52;;;16.30;99.90;;;;;;5071651;28;20235;-60
2023/07/01 00:23:20;;;;;;;2.67;1.70;;;16.30;99.90;;;;;;5059313;28;20643;-60
2023/07/01 00:25:49;;;;;;;3.58;1.92;;;16.20;99.90;;;;;;5050087;28;20297;-59
2023/07/01 00:28:17;;;;;;;2.13;1.92;;;16.10;99.90;;;;;;5053911;28;20202;-61
2023/07/01 00:30:45;;;;;;;4.28;1.88;;;16.10;99.90;;;;;;5053248;28;20214;-60
2023/07/01 00:33:13;;;;;;;2.45;1.80;;;16.10;99.90;;;;;;5052816;28;20253;-60
2023/07/01 00:35:41;;;;;;;5.10;1.92;;;16.00;99.90;;;;;;5046792;28;20214;-60
2023/07/01 00:38:09;;;;;;;4.78;1.92;;;16.00;99.90;;;;;;5049866;28;20621;-60
2023/07/01 00:40:37;;;;;;;5.57;2.15;;;16.00;99.90;;;;;;5049584;28;20312;-60
2023/07/01 00:43:06;;;;;;;3.65;1.65;;;15.90;99.90;;;;;;5052992;28;20661;-60
2023/07/01 00:45:34;;;;;;;3.97;2.10;;;15.90;99.90;;;;;;5055530;28;20247;-60
2023/07/01 00:48:02;;;;;;;2.28;2.03;;;15.80;99.90;;;;;;5047899;28;20654;-60
2023/07/01 00:50:30;;;;;;;3.85;1.80;;;15.80;99.90;;;;;;5050735;28;20264;-60
2023/07/01 00:52:58;;;;;;;2.33;1.63;;;15.70;99.90;;;;;;5049747;28;20712;-59
2023/07/01 00:55:26;;;;;;;2.42;1.80;;;15.60;99.90;;;;;;5047879;28;20628;-60
2023/07/01 00:57:54;;;;;;;2.83;1.88;;;15.50;99.90;;;;;;5050094;28;20635;-61
2023/07/01 01:00:23;;;;;;;6.18;2.03;;;15.50;99.90;;;;;;5049065;28;20691;-62
2023/07/01 01:02:55;;;;;;;2.15;1.90;;;15.50;99.90;;;;;;5055732;28;20241;-60
2023/07/01 01:05:25;;;;;;;5.20;2.03;;;15.40;99.90;;;;;;5057268;28;20216;-59
2023/07/01 01:07:58;;;;;;;4.60;2.30;;;15.40;99.90;;;;;;5055186;28;20240;-59
2023/07/01 01:10:27;;;;;;;3.28;2.10;;;15.40;99.90;;;;;;5057798;28;20305;-61
2023/07/01 01:12:57;;;;;;;4.43;2.13;;;15.40;99.90;;;;;;5062498;28;20221;-60
2023/07/01 01:15:27;;;;;;;3.20;1.92;;;15.40;99.90;;;;;;5065201;28;20309;-60
2023/07/01 01:17:56;;;;;;;2.10;1.83;;;15.30;99.90;;;;;;5066820;28;20271;-61
2023/07/01 01:20:25;;;;;;;3.42;2.22;;;15.30;99.90;;;;;;5072264;22;20237;-74
2023/07/01 01:22:56;;;;;;;2.58;1.83;;;15.20;99.90;;;;;;5070457;28;20241;-74
2023/07/01 01:25:29;;;;;;;3.33;2.30;;;15.20;99.90;;;;;;5070690;28;20320;-73
2023/07/01 01:27:59;;;;;;;2.65;2.25;;;15.20;99.90;;;;;;5074233;28;20288;-74
2023/07/01 01:30:30;;;;;;;2.10;1.90;;;15.10;99.90;;;;;;5070257;28;20280;-73
2023/07/01 01:32:58;;;;;;;2.10;1.98;;;15.10;99.90;;;;;;5069261;28;20247;-73
2023/07/01 01:35:26;;;;;;;2.85;2.00;;;15.10;99.90;;;;;;5071662;28;20643;-73
2023/07/01 01:37:55;;;;;;;2.30;2.08;;;15.10;99.90;;;;;;5068752;28;20296;-73
2023/07/01 01:40:24;;;;;;;3.63;2.10;;;15.10;99.90;;;;;;5071236;28;20232;-74
2023/07/01 01:42:52;;;;;;;5.90;2.40;;;15.00;99.90;;;;;;5073260;28;20720;-74
2023/07/01 01:45:21;;;;;;;2.38;2.00;;;15.00;99.90;;;;;;5069910;28;20225;-74
2023/07/01 01:47:49;;;;;;;2.00;1.90;;;15.00;99.90;;;;;;5077268;28;20203;-74
2023/07/01 01:50:18;;;;;;;1.90;1.80;;;15.00;99.90;;;;;;5073468;28;20209;-74
2023/07/01 01:52:46;;;;;;;2.20;2.00;;;14.90;99.90;;;;;;5069304;28;20794;-74
2023/07/01 01:55:14;;;;;;;3.22;1.77;;;14.90;99.90;;;;;;5068895;28;20407;-73
2023/07/01 01:57:42;;;;;;;5.50;2.28;;;14.90;99.90;;;;;;5075176;28;20243;-73
2023/07/01 02:00:13;;;;;;;2.38;1.80;;;14.90;99.90;;;;;;5075523;28;20251;-73
2023/07/01 02:02:42;;;;;;;5.45;2.08;;;14.90;99.90;;;;;;5073607;28;20201;-74
2023/07/01 02:05:10;;;;;;;2.88;2.08;;;14.90;99.90;;;;;;5072204;28;20881;-74
2023/07/01 02:07:39;;;;;;;2.00;1.90;;;14.90;99.90;;;;;;5076310;28;20205;-74
2023/07/01 02:10:08;;;;;;;2.20;1.80;;;14.90;99.90;;;;;;5077154;28;20205;-75
2023/07/01 02:12:36;;;;;;;4.32;1.88;;;14.90;99.90;;;;;;5072250;28;20585;-74
2023/07/01 02:15:04;;;;;;;2.85;1.90;;;14.90;99.90;;;;;;5072005;28;20248;-74
2023/07/01 02:17:32;;;;;;;2.58;2.20;;;14.80;99.90;;;;;;5074767;28;20205;-73
2023/07/01 02:20:03;;;;;;;4.03;1.60;;;14.80;99.90;;;;;;5072425;28;20213;-74
2023/07/01 02:22:31;;;;;;;4.25;2.00;;;14.80;99.90;;;;;;5072530;28;20943;-74
2023/07/01 02:24:59;;;;;;;2.63;1.88;;;14.80;99.90;;;;;;5079034;28;20969;-74
2023/07/01 02:27:30;;;;;;;2.58;1.98;;;14.70;99.90;;;;;;5077108;28;20236;-74
2023/07/01 02:29:58;;;;;;;3.15;1.98;;;14.70;99.90;;;;;;5080336;28;20253;-74
2023/07/01 02:32:26;;;;;;;2.22;1.63;;;14.70;99.90;;;;;;5085684;28;20622;-74
2023/07/01 02:34:54;;;;;;;2.42;2.08;;;14.70;99.90;;;;;;5077857;28;20683;-73
2023/07/01 02:37:23;;;;;;;4.43;2.03;;;14.60;99.90;;;;;;5089629;28;20676;-74
2023/07/01 02:39:51;;;;;;;2.75;1.77;;;14.60;99.90;;;;;;5078965;28;20228;-74
2023/07/01 02:42:20;;;;;;;2.40;1.92;;;14.60;99.90;;;;;;5083253;28;20670;-74
2023/07/01 02:44:48;;;;;;;2.83;1.70;;;14.50;99.90;;;;;;5074992;28;20209;-74
2023/07/01 02:47:16;;;;;;;3.85;2.38;;;14.50;99.90;;;;;;5088905;28;20219;-74
2023/07/01 02:49:44;;;;;;;4.15;1.88;;;14.50;99.90;;;;;;5075336;28;20201;-74
2023/07/01 02:52:16;;;;;;;4.00;1.55;;;14.50;99.90;;;;;;5082011;28;20246;-75
2023/07/01 02:54:45;;;;;;;3.80;2.13;;;14.40;99.90;;;;;;5078946;28;20314;-72
2023/07/01 02:57:13;;;;;;;3.78;2.08;;;14.40;99.90;;;;;;5079111;28;20256;-73
2023/07/01 02:59:40;;;;;;;2.90;2.00;;;14.40;99.90;;;;;;5075449;28;20262;-73
2023/07/01 03:02:08;;;;;;;2.75;1.65;;;14.40;99.90;;;;;;5073748;28;20255;-73
2023/07/01 03:04:36;;;;;;;2.03;1.85;;;14.40;99.90;;;;;;5068252;28;20270;-72
2023/07/01 03:07:05;;;;;;;2.85;1.98;;;14.40;99.90;;;;;;5071648;28;20221;-72
2023/07/01 03:09:33;;;;;;;3.08;1.88;;;14.50;99.90;;;;;;5074062;28;20666;-75
2023/07/01 03:12:03;;;;;;;4.47;2.05;;;14.50;99.90;;;;;;5066339;28;20202;-75
2023/07/01 03:14:30;;;;;;;4.65;1.90;;;14.50;99.90;;;;;;5067061;28;20288;-75
2023/07/01 03:16:58;;;;;;;4.25;2.47;;;14.50;99.90;;;;;;5072296;28;20228;-75
2023/07/01 03:19:26;;;;;;;2.42;1.88;;;14.60;99.90;;;;;;5070910;28;20213;-74
2023/07/01 03:21:55;;;;;;;1.92;1.83;;;14.60;99.90;;;;;;5069222;28;20292;-74
2023/07/01 03:24:22;;;;;;;2.60;2.17;;;14.60;99.90;;;;;;5068397;28;20270;-74
2023/07/01 03:26:50;;;;;;;2.13;1.92;;;14.60;99.90;;;;;;5069961;28;20299;-74
2023/07/01 03:29:20;;;;;;;2.78;2.28;;;14.60;99.90;;;;;;5078794;28;20656;-74
2023/07/01 03:31:48;;;;;;;2.88;2.13;;;14.60;99.90;;;;;;5068328;28;20323;-74
2023/07/01 03:34:17;;;;;;;3.88;2.30;;;14.70;99.90;;;;;;5077464;28;20208;-74
2023/07/01 03:36:45;;;;;;;2.95;2.17;;;14.70;99.90;;;;;;5069464;28;20225;-73
2023/07/01 03:39:13;;;;;;;2.50;2.25;;;14.70;99.90;;;;;;5071476;28;20205;-74
2023/07/01 03:41:41;;;;;;;3.55;2.03;;;14.80;99.90;;;;;;5071066;28;20289;-74
2023/07/01 03:44:09;;;;;;;3.13;2.30;;;14.80;99.90;;;;;;5068000;28;20213;-74
2023/07/01 03:46:38;;;;;;;3.30;2.30;;;14.90;99.90;;;;;;5067877;28;20263;-74
2023/07/01 03:49:06;;;;;;;7.15;2.63;;;14.90;99.90;;;;;;5082651;28;20240;-74
2023/07/01 03:51:34;;;;;;;3.25;2.80;;;15.00;99.90;;;;;;5074224;28;20284;-74
2023/07/01 03:54:02;;;;;;;4.53;2.72;;;15.00;99.90;;;;;;5070951;28;20228;-73
2023/07/01 03:56:30;;;;;;;2.63;2.42;;;15.10;99.90;;;;;;5076884;28;20282;-73
2023/07/01 03:58:58;;;;;;;2.75;2.40;;;15.10;99.90;;;;;;5084077;28;20234;-73
2023/07/01 04:01:27;;;;;;;3.28;2.67;;;15.10;99.90;;;;;;5071672;28;20240;-73
2023/07/01 04:03:56;;;;;;;4.90;2.50;;;15.20;99.90;;;;;;5082112;28;20260;-73
2023/07/01 04:06:24;;;;;;;2.72;2.28;;;15.20;99.90;;;;;;5077774;28;20311;-73
2023/07/01 04:08:54;;;;;;;4.47;2.42;;;15.30;99.90;;;;;;5082058;28;20238;-73
2023/07/01 04:11:24;;;;;;;3.50;2.97;;;15.30;99.90;;;;;;5070327;28;20205;-73
2023/07/01 04:13:52;;;;;;;4.10;2.40;;;15.30;99.90;;;;;;5073801;28;20266;-73
2023/07/01 04:16:20;;;;;;;4.10;2.72;;;15.30;99.90;;;;;;5077964;28;20265;-73
2023/07/01 04:18:48;;;;;;;4.35;2.40;;;15.30;99.90;;;;;;5082183;28;20204;-73
2023/07/01 04:21:17;;;;;;;3.58;2.30;;;15.40;99.90;;;;;;5071852;28;20255;-73
2023/07/01 04:23:45;;;;;;;5.88;2.55;;;15.40;99.90;;;;;;5087219;28;20224;-73
2023/07/01 04:26:13;;;;;;;3.00;2.80;;;15.50;99.90;;;;;;5077664;28;20277;-72
2023/07/01 04:28:41;;;;;;;5.55;3.45;;;15.50;99.90;;;;;;5070157;28;20236;-73
2023/07/01 04:31:09;;;;;;;4.45;2.80;;;15.60;99.90;;;;;;5072188;28;20287;-73
2023/07/01 04:33:37;;;;;;;6.35;2.88;;;15.60;99.90;;;;;;5068123;28;20395;-73
2023/07/01 04:36:05;;;;;;;5.32;3.20;;;15.60;99.90;;;;;;5069152;28;20224;-73
2023/07/01 04:38:34;;;;;;;8.57;3.40;;;15.60;99.90;;;;;;5066966;28;20240;-73
2023/07/01 04:41:02;;;;;;;5.13;3.08;;;15.60;99.90;;;;;;5065993;28;20201;-73
2023/07/01 04:43:30;;;;;;;4.80;3.28;;;15.70;99.90;;;;;;5073637;28;20677;-73
2023/07/01 04:45:58;;;;;;;3.55;3.03;;;15.70;99.90;;;;;;5068659;28;20265;-73
2023/07/01 04:48:26;;;;;;;4.85;3.05;;;15.80;99.90;;;;;;5080110;28;20208;-73
2023/07/01 04:50:54;;;;;;;5.85;3.58;;;15.80;99.90;;;;;;5073154;28;20304;-73
2023/07/01 04:53:22;;;;;;;4.57;3.35;;;15.90;99.90;;;;;;5072105;28;20239;-73
2023/07/01 04:55:52;;;;;;;3.58;3.05;;;15.90;99.90;;;;;;5069773;28;20327;-73
2023/07/01 04:58:19;;;;;;;3.45;2.92;;;16.00;99.90;;;;;;5072040;28;20197;-73
2023/07/01 05:00:47;;;;;;;6.72;3.45;;;16.00;99.90;;;;;;5072925;28;20240;-74
2023/07/01 05:03:16;;;;;;;5.72;3.72;;;16.00;99.90;;;;;;5071547;28;20197;-73
2023/07/01 05:05:44;;;;;;;7.07;3.60;;;16.00;99.90;;;;;;5075441;28;20682;-74
2023/07/01 05:08:12;;;;;;;5.55;3.38;;;16.00;99.90;;;;;;5071917;28;20328;-73
2023/07/01 05:10:40;;;;;;;5.47;3.10;;;16.00;99.90;;;;;;5075754;28;20205;-73
2023/07/01 05:13:10;;;;;;;4.18;3.33;;;15.90;99.90;;;;;;5071672;28;20267;-74
2023/07/01 05:15:38;;;;;;;4.78;3.38;;;16.00;99.90;;;;;;5071151;28;20282;-74
2023/07/01 05:18:06;;;;;;;5.53;3.25;;;16.00;99.90;;;;;;5074644;28;20284;-74
2023/07/01 05:20:34;;;;;;;5.10;3.20;;;16.10;99.90;;;;;;5070509;28;20247;-74
2023/07/01 05:23:02;;;;;;;4.88;3.10;;;16.10;99.90;;;;;;5075640;28;20754;-73
2023/07/01 05:25:30;;;;;;;7.00;2.72;;;16.20;99.90;;;;;;5080163;28;20566;-76
2023/07/01 05:27:58;;;;;;;4.95;3.20;;;16.30;99.90;;;;;;5070596;28;20204;-74
2023/07/01 05:30:27;;;;;;;5.88;2.72;;;16.20;99.90;;;;;;5075284;28;20648;-74
2023/07/01 05:32:55;;;;;;;3.65;3.28;;;16.30;99.90;;;;;;5073299;28;20205;-74
2023/07/01 05:35:23;;;;;;;9.40;2.97;;;16.30;99.90;;;;;;5073128;28;20718;-75
2023/07/01 05:37:52;;;;;;;3.42;2.83;;;16.30;99.90;;;;;;5071388;28;20241;-74
2023/07/01 05:40:20;;;;;;;3.25;2.40;;;16.40;99.90;;;;;;5073551;28;20224;-74
2023/07/01 05:42:49;;;;;;;3.75;2.75;;;16.50;99.90;;;;;;5072780;28;20251;-74
2023/07/01 05:45:17;;;;;;;4.40;2.78;;;16.60;99.90;;;;;;5070450;28;20289;-74
2023/07/01 05:47:46;;;;;;;3.75;2.70;;;16.60;99.90;;;;;;5069789;28;20245;-75
2023/07/01 05:50:14;;;;;;;4.07;2.42;;;16.70;99.90;;;;;;5078243;28;20673;-77
2023/07/01 05:52:42;;;;;;;2.72;2.53;;;16.80;99.90;;;;;;5078061;28;20252;-75
2023/07/01 05:55:10;;;;;;;4.72;2.55;;;16.90;99.90;;;;;;5084862;28;20280;-76
2023/07/01 05:57:37;;;;;;;4.47;2.58;;;17.00;99.90;;;;;;5070039;28;20295;-76
2023/07/01 06:00:07;;;;;;;3.25;2.38;;;17.20;99.90;;;;;;5073097;28;20257;-73
2023/07/01 06:02:35;;;;;;;5.38;2.10;;;17.40;99.90;;;;;;5071352;28;20274;-74
2023/07/01 06:05:04;;;;;;;4.00;2.47;;;17.50;99.90;;;;;;5067971;28;20759;-74
2023/07/01 06:07:32;;;;;;;5.57;1.90;;;17.80;99.90;;;;;;5087011;28;20203;-75
2023/07/01 06:10:00;;;;;;;4.25;2.28;;;18.00;99.90;;;;;;5077058;28;20237;-73
2023/07/01 06:12:28;;;;;;;3.22;2.25;;;18.20;99.90;;;;;;5078136;28;20209;-73
2023/07/01 06:14:56;;;;;;;4.32;2.00;;;18.40;99.90;;;;;;5083099;28;20216;-73
2023/07/01 06:17:24;;;;;;;4.57;2.22;;;18.60;99.90;;;;;;5073047;28;20224;-75
2023/07/01 06:19:52;;;;;;;3.83;2.30;;;18.70;99.90;;;;;;5085132;28;20209;-74
2023/07/01 06:22:21;;;;;;;9.85;2.28;;;18.90;99.90;;;;;;5071751;28;20260;-74
2023/07/01 06:24:49;;;;;;;2.13;1.90;;;19.00;99.90;;;;;;5070872;28;20702;-74
2023/07/01 06:27:17;;;;;;;8.48;1.85;;;19.20;99.90;;;;;;5071510;28;20253;-75
2023/07/01 06:29:45;;;;;;;4.72;2.17;;;19.30;99.90;;;;;;5073448;28;20290;-75
2023/07/01 06:32:12;;;;;;;6.47;1.80;;;19.40;99.90;;;;;;5070382;28;20251;-74
2023/07/01 06:34:40;;;;;;;4.75;2.35;;;19.50;99.90;;;;;;5071517;28;20204;-74
2023/07/01 06:37:08;;;;;;;2.65;1.92;;;19.50;99.90;;;;;;5068081;28;20256;-73
2023/07/01 06:39:37;;;;;;;3.13;1.80;;;19.50;99.90;;;;;;5074565;28;20694;-73
2023/07/01 06:42:07;;;;;;;6.28;2.00;;;19.60;99.90;;;;;;5068918;28;20326;-76
2023/07/01 06:44:35;;;;;;;7.18;1.83;;;19.60;99.90;;;;;;5070620;28;20258;-76
2023/07/01 06:47:04;;;;;;;4.72;1.73;;;19.70;99.90;;;;;;5074028;28;20217;-76
2023/07/01 06:49:32;;;;;;;4.47;1.90;;;19.70;99.90;;;;;;5076379;28;20227;-75
2023/07/01 06:52:00;;;;;;;6.53;2.25;;;19.80;99.90;;;;;;5069379;28;20205;-76
2023/07/01 06:54:27;;;;;;;2.58;1.80;;;19.90;99.90;;;;;;5072294;28;20196;-77
2023/07/01 06:56:57;;;;;;;8.35;2.00;;;20.00;99.90;;;;;;5076283;22;20255;-62
2023/07/01 06:59:25;;;;;;;3.85;1.70;;;20.10;99.90;;;;;;5051119;28;20257;-66
2023/07/01 07:01:52;;;;;;;5.72;1.90;;;20.10;99.90;;;;;;5056232;28;20236;-62
2023/07/01 07:04:20;;;;;;;6.43;2.00;;;20.10;99.90;;;;;;5057701;28;20225;-62
2023/07/01 07:06:48;;;;;;;3.70;1.65;;;20.10;99.90;;;;;;5050370;28;20221;-62
2023/07/01 07:09:16;;;;;;;2.00;1.83;;;20.20;99.90;;;;;;5048810;28;20225;-62
2023/07/01 07:11:47;;;;;;;2.15;1.67;;;20.30;99.90;;;;;;5057944;28;20207;-62
2023/07/01 07:14:16;;;;;;;4.45;2.03;;;20.30;99.90;;;;;;5047166;28;20316;-62
2023/07/01 07:16:46;;;;;;;6.15;2.15;;;20.40;99.90;;;;;;5056259;28;20212;-62
2023/07/01 07:19:14;;;;;;;7.43;1.45;;;20.50;99.90;;;;;;5059408;28;20312;-63
2023/07/01 07:21:42;;;;;;;1.63;1.42;;;20.60;99.90;;;;;;5076222;22;20723;-62
2023/07/01 07:24:09;;;;;;;5.63;1.95;;;20.80;99.90;;;;;;5071747;28;20280;-64
2023/07/01 07:26:38;;;;;;;6.75;2.35;;;21.00;99.90;;;;;;5062829;28;20715;-61
2023/07/01 07:29:06;;;;;;;4.97;1.85;;;21.10;99.90;;;;;;5071028;28;20668;-60
2023/07/01 07:31:35;;;;;;;5.13;2.10;;;21.10;99.90;;;;;;5067080;28;20252;-61
2023/07/01 07:34:03;;;;;;;4.25;1.95;;;21.20;99.90;;;;;;5053091;28;20292;-62
2023/07/01 07:36:31;;;;;;;3.88;2.00;;;21.30;99.90;;;;;;5063381;28;20228;-62
2023/07/01 07:38:59;;;;;;;3.25;2.17;;;21.30;99.90;;;;;;5072260;28;20654;-62
2023/07/01 07:41:27;;;;;;;4.82;1.92;;;21.20;99.90;;;;;;5071995;28;20256;-61
2023/07/01 07:43:55;;;;;;;5.35;2.08;;;21.10;99.90;;;;;;5072063;28;20200;-62
2023/07/01 07:46:22;;;;;;;5.00;2.03;;;21.00;99.90;;;;;;5071715;28;20262;-61
2023/07/01 07:48:52;;;;;;;3.92;1.88;;;20.90;99.90;;;;;;5072078;28;20255;-60
2023/07/01 07:51:20;;;;;;;3.03;2.08;;;20.70;99.90;;;;;;5072078;28;20304;-61
2023/07/01 07:53:48;;;;;;;4.45;2.47;;;20.70;99.90;;;;;;5064465;28;20233;-61
2023/07/01 07:56:15;;;;;;;2.10;1.55;;;20.70;99.90;;;;;;5054638;28;20225;-61
2023/07/01 07:58:43;;;;;;;2.88;1.73;;;20.80;99.90;;;;;;5064207;28;20663;-61
2023/07/01 08:01:11;;;;;;;2.83;2.08;;;20.80;99.90;;;;;;5056450;28;20271;-61
2023/07/01 08:03:40;;;;;;;2.17;1.60;;;20.80;99.90;;;;;;5054342;28;20247;-60
2023/07/01 08:06:10;;;;;;;4.82;1.42;;;20.90;99.90;;;;;;5054750;28;20703;-61
2023/07/01 08:08:38;;;;;;;2.90;1.60;;;21.00;99.90;;;;;;5051359;28;20259;-61
2023/07/01 08:11:06;;;;;;;8.60;2.00;;;21.00;99.90;;;;;;5054787;28;20249;-61
2023/07/01 08:13:34;;;;;;;4.05;1.90;;;21.10;99.90;;;;;;5071586;28;20242;-61
2023/07/01 08:16:03;;;;;;;2.42;1.90;;;21.20;99.90;;;;;;5058847;28;20274;-61
2023/07/01 08:18:31;;;;;;;4.93;1.80;;;21.30;99.90;;;;;;5071627;28;20205;-61
2023/07/01 08:20:59;;;;;;;2.03;1.67;;;21.40;99.90;;;;;;5071187;28;20297;-61
2023/07/01 08:23:29;;;;;;;3.45;1.60;;;21.50;99.90;;;;;;5055347;28;20633;-60
2023/07/01 08:25:56;;;;;;;2.13;1.20;;;21.50;99.90;;;;;;5052069;28;20268;-61
2023/07/01 08:28:24;;;;;;;1.58;1.48;;;21.50;99.90;;;;;;5053388;28;20653;-60
2023/07/01 08:30:52;;;;;;;5.80;1.48;;;21.40;99.90;;;;;;5052181;28;20228;-61
2023/07/01 08:33:20;;;;;;;5.80;1.20;;;21.30;99.90;;;;;;5056359;28;20201;-61
2023/07/01 08:35:48;;;;;;;3.80;1.55;;;21.30;99.90;;;;;;5047527;28;20672;-61
2023/07/01 08:38:16;;;;;;;4.00;1.02;;;21.20;99.90;;;;;;5052258;28;20669;-60
2023/07/01 08:40:46;;;;;;;6.22;0.95;;;21.20;99.90;;;;;;5054650;28;20312;-61
2023/07/01 08:43:14;;;;;;;2.72;1.35;;;21.20;99.90;;;;;;5059494;28;20197;-61
2023/07/01 08:45:42;;;;;;;2.45;1.02;;;21.10;99.90;;;;;;5057775;28;20246;-61
2023/07/01 08:48:10;;;;;;;1.40;1.23;;;21.10;99.90;;;;;;5056952;28;20284;-60
2023/07/01 08:50:42;;;;;;;4.93;0.82;;;21.10;99.90;;;;;;5049226;28;20253;-60
2023/07/01 08:53:11;;;;;;;2.78;1.35;;;21.00;99.90;;;;;;5050970;28;20681;-59
2023/07/01 08:55:39;;;;;;;2.25;1.10;;;21.00;99.90;;;;;;5053511;28;20209;-60
2023/07/01 08:58:08;;;;;;;2.00;1.15;;;21.10;99.90;;;;;;5059168;28;20204;-60
2023/07/01 09:00:36;;;;;;;3.90;1.05;;;21.20;99.90;;;;;;5059656;28;20727;-61
2023/07/01 09:03:04;;;;;;;2.53;1.10;;;21.20;99.90;;;;;;5054305;28;20207;-61
2023/07/01 09:05:32;;;;;;;3.63;0.98;;;21.20;99.90;;;;;;5051226;28;20201;-61
2023/07/01 09:08:00;;;;;;;4.97;1.10;;;21.10;99.90;;;;;;5054957;28;20779;-63
2023/07/01 09:10:27;;;;;;;1.10;1.10;;;21.20;99.90;;;;;;5071273;28;20256;-62
2023/07/01 09:12:55;;;;;;;3.83;1.17;;;21.20;99.90;;;;;;5059956;28;20233;-63
2023/07/01 09:15:25;;;;;;;5.65;1.02;;;21.20;99.90;;;;;;5055963;28;20228;-62
2023/07/01 09:17:53;;;;;;;1.27;0.77;;;21.30;99.90;;;;;;5070999;28;20236;-63
2023/07/01 09:20:20;;;;;;;5.00;1.30;;;21.40;99.90;;;;;;5061435;28;20289;-62
2023/07/01 09:22:49;;;;;;;6.38;1.33;;;21.40;99.90;;;;;;5044052;28;20241;-63
2023/07/01 09:25:27;;;;;;;2.58;0.80;;;21.40;99.90;;;;;;5044023;28;20233;-62
2023/07/01 09:27:55;;;;;;;2.75;1.05;;;21.40;99.90;;;;;;5056183;28;20227;-63
2023/07/01 09:30:25;;;;;;;2.58;0.85;;;21.30;99.90;;;;;;5060232;28;20233;-62
2023/07/01 09:33:08;;;;;;;2.05;0.90;;;21.30;99.90;;;;;;5054764;28;21527;-60
2023/07/01 09:35:41;;;;;;;3.88;1.20;;;21.30;99.90;;;;;;5041939;28;20244;-62
2023/07/01 09:38:09;;;;;;;2.22;1.10;;;21.30;99.90;;;;;;5074285;28;20200;-61
2023/07/01 09:40:37;;;;;;;2.10;1.05;;;21.30;99.90;;;;;;5074109;28;20224;-61
2023/07/01 09:43:05;;;;;;;1.67;1.23;;;21.30;99.90;;;;;;5057144;28;20202;-60
2023/07/01 09:45:34;;;;;;;1.27;0.93;;;21.30;99.90;;;;;;5060265;28;20283;-60
2023/07/01 09:48:10;;;;;;;12.05;2.92;;;21.30;99.90;;;;;;5074119;28;20220;-60
2023/07/01 09:50:38;;;;;;;7.63;1.52;;;21.30;99.90;;;;;;5074036;28;20220;-59
2023/07/01 09:53:10;;;;;;;4.32;1.17;;;21.30;99.90;;;;;;5065475;28;20673;-58
2023/07/01 09:55:38;;;;;;;3.30;0.90;;;21.30;99.90;;;;;;5054561;28;20240;-59
2023/07/01 09:58:06;;;;;;;2.42;0.90;;;21.30;99.90;;;;;;5063611;28;20292;-60
2023/07/01 10:00:35;;;;;;;4.60;1.00;;;21.10;99.90;;;;;;5050099;28;20280;-60
2023/07/01 10:03:03;;;;;;;2.00;1.00;;;21.10;99.90;;;;;;5056980;28;20232;-59
2023/07/01 10:05:31;;;;;;;3.75;0.90;;;21.00;99.90;;;;;;5062961;28;20203;-59
2023/07/01 10:07:59;;;;;;;1.42;1.00;;;21.00;99.90;;;;;;5051641;28;20248;-59
2023/07/01 10:10:27;;;;;;;2.08;0.90;;;21.00;99.90;;;;;;5070693;28;20224;-59
2023/07/01 10:12:55;;;;;;;3.30;0.70;;;20.90;99.90;;;;;;5052608;28;20284;-59
2023/07/01 10:15:24;;;;;;;1.63;1.10;;;20.90;99.90;;;;;;5056997;28;20236;-59
2023/07/01 10:17:55;;;;;;;1.70;0.93;;;20.80;99.90;;;;;;5056079;28;20326;-60
2023/07/01 10:20:30;;;;;;;2.15;0.90;;;20.90;99.90;;;;;;5063637;28;20299;-59
2023/07/01 10:22:58;;;;;;;1.13;0.93;;;20.90;99.90;;;;;;5073720;28;20214;-60
2023/07/01 10:25:32;;;;;;;0.93;0.90;;;20.80;99.90;;;;;;5071899;28;20734;-60
2023/07/01 10:28:09;;;;;;;0.88;0.88;;;20.80;99.90;;;;;;5073144;28;20726;-59
2023/07/01 10:31:14;;;;;;;1.05;0.98;;;20.80;99.90;;;;;;5073413;28;20262;-60
2023/07/01 10:33:57;;;;;;;3.25;1.00;;;20.80;99.90;;;;;;5038007;28;20201;-59
2023/07/01 10:36:25;;;;;;;1.30;0.90;;;20.70;99.90;;;;;;5051663;28;20202;-59
2023/07/01 10:38:53;;;;;;;2.25;0.90;;;20.70;99.90;;;;;;5067506;28;20292;-59
2023/07/01 10:41:49;;;;;;;2.40;0.80;;;20.70;99.90;;;;;;5072982;28;20224;-59
2023/07/01 10:44:26;;;;;;;2.72;1.17;;;20.70;99.90;;;;;;5061620;28;20644;-60
2023/07/01 10:47:16;;;;;;;2.40;1.27;;;20.70;99.90;;;;;;5056040;28;20236;-59
2023/07/01 10:50:08;;;;;;;1.13;0.90;;;20.80;99.90;;;;;;5045516;28;20287;-59
2023/07/01 10:53:01;;;;;;;1.63;1.20;;;20.80;99.90;;;;;;5056157;28;20289;-59
2023/07/01 10:55:39;;;;;;;2.40;1.27;;;20.70;99.90;;;;;;5051545;28;20681;-60
2023/07/01 10:58:15;;;;;;;2.20;1.27;;;20.60;99.90;;;;;;5046838;28;20280;-58
2023/07/01 11:00:43;;;;;;;1.73;1.10;;;20.50;99.90;;;;;;5054055;28;20221;-59
2023/07/01 11:03:42;;;;;;;2.65;1.10;;;20.40;99.90;;;;;;5069547;28;20201;-59
2023/07/01 11:06:12;;;;;;;3.25;1.08;;;20.40;99.90;;;;;;5054913;28;20566;-59
2023/07/01 11:08:44;;;;;;;1.73;1.20;;;20.40;99.90;;;;;;5054560;28;20221;-60
2023/07/01 11:11:12;;;;;;;1.52;1.40;;;20.50;99.90;;;;;;5052050;28;20769;-60
2023/07/01 11:13:40;;;;;;;4.07;1.38;;;20.50;99.90;;;;;;5059334;28;20200;-60
2023/07/01 11:16:11;;;;;;;5.90;1.38;;;20.40;99.90;;;;;;5072326;28;20223;-60
2023/07/01 11:18:42;;;;;;;3.17;1.40;;;20.40;99.90;;;;;;5072583;28;20207;-59
2023/07/01 11:21:12;;;;;;;1.15;0.98;;;20.40;99.90;;;;;;5050006;28;20669;-58
2023/07/01 11:23:42;;;;;;;12.50;1.48;;;20.30;99.90;;;;;;5051453;28;20237;-60
2023/07/01 11:26:10;;;;;;;3.15;1.20;;;20.30;99.90;;;;;;5054417;28;20205;-60
2023/07/01 11:28:38;;;;;;;4.55;1.17;;;20.30;99.90;;;;;;5053472;28;20317;-60
2023/07/01 11:31:14;;;;;;;3.67;1.25;;;20.30;99.90;;;;;;5055258;28;20647;-60
2023/07/01 11:33:46;;;;;;;8.38;1.30;;;20.30;99.90;;;;;;5043365;28;20206;-60
2023/07/01 11:36:16;;;;;;;4.13;1.23;;;20.30;99.90;;;;;;5051528;28;20292;-60
2023/07/01 11:38:45;;;;;;;4.40;1.52;;;20.40;99.90;;;;;;5064611;28;20611;-59
2023/07/01 11:41:16;;;;;;;1.13;0.70;;;20.50;99.90;;;;;;5057484;28;20286;-60
2023/07/01 11:43:44;;;;;;;1.52;1.00;;;20.60;99.90;;;;;;5057759;28;20288;-59
2023/07/01 11:46:12;;;;;;;1.95;1.00;;;20.70;99.90;;;;;;5053776;28;21016;-59
2023/07/01 11:48:40;;;;;;;1.10;1.00;;;20.80;99.90;;;;;;5052424;28;20226;-59
2023/07/01 11:51:08;;;;;;;3.90;1.00;;;20.80;99.90;;;;;;5050734;28;20225;-59
2023/07/01 11:53:55;;;;;;;0.82;0.82;;;20.80;99.90;;;;;;5049928;28;20291;-60
2023/07/01 11:56:23;;;;;;;2.50;0.95;;;20.80;99.90;;;;;;5065833;28;20209;-61
2023/07/01 11:58:52;;;;;;;1.25;0.90;;;20.80;99.90;;;;;;5054654;28;20240;-61
2023/07/01 12:01:28;;;;;;;0.93;0.90;;;20.80;99.90;;;;;;5071165;28;20255;-61
2023/07/01 12:03:56;;;;;;;1.05;1.05;;;20.70;99.90;;;;;;5053913;28;20578;-60
2023/07/01 12:06:25;;;;;;;1.17;1.08;;;20.70;99.90;;;;;;5050283;28;20201;-60
2023/07/01 12:08:55;;;;;;;1.77;1.10;;;20.70;99.90;;;;;;5049891;28;20225;-61
2023/07/01 12:11:44;;;;;;;1.95;1.35;;;20.70;99.90;;;;;;5052274;28;20227;-62
2023/07/01 12:14:18;;;;;;;1.00;1.00;;;20.70;99.90;;;;;;5054068;28;20228;-62
2023/07/01 12:16:49;;;;;;;3.83;1.20;;;20.80;99.90;;;;;;5054684;28;20204;-62
2023/07/01 12:19:17;;;;;;;1.70;1.05;;;20.90;99.90;;;;;;5053106;28;20288;-61
2023/07/01 12:21:45;;;;;;;2.70;1.30;;;20.90;99.90;;;;;;5053342;28;20260;-63
2023/07/01 12:24:19;;;;;;;3.45;1.10;;;20.90;99.90;;;;;;5051781;28;20311;-61
2023/07/01 12:26:47;;;;;;;1.83;1.20;;;20.90;99.90;;;;;;5053321;28;20673;-61
2023/07/01 12:29:15;;;;;;;1.77;1.20;;;20.90;99.90;;;;;;5053127;28;20770;-61
2023/07/01 12:31:43;;;;;;;1.25;1.00;;;20.80;99.90;;;;;;5055782;28;20235;-61
2023/07/01 12:34:11;;;;;;;2.38;1.00;;;20.80;99.90;;;;;;5051222;28;20297;-61
2023/07/01 12:36:39;;;;;;;3.85;1.00;;;20.90;99.90;;;;;;5054259;28;20254;-60
2023/07/01 12:39:07;;;;;;;1.98;1.00;;;20.90;99.90;;;;;;5046363;28;20226;-63
2023/07/01 12:41:37;;;;;;;2.67;1.02;;;20.80;99.90;;;;;;5049562;28;20267;-62
2023/07/01 12:44:05;;;;;;;1.27;1.00;;;20.80;99.90;;;;;;5071375;28;20231;-62
2023/07/01 12:46:34;;;;;;;1.30;1.20;;;20.80;99.90;;;;;;5070904;28;20208;-61
2023/07/01 12:49:03;;;;;;;3.10;1.35;;;20.80;99.90;;;;;;5071087;28;20266;-62
2023/07/01 12:51:35;;;;;;;3.40;1.25;;;20.80;99.90;;;;;;5065537;28;20580;-61
2023/07/01 12:54:04;;;;;;;2.58;1.00;;;20.80;99.90;;;;;;5045676;28;20209;-63
2023/07/01 12:56:46;;;;;;;1.38;1.15;;;20.70;99.90;;;;;;5053447;28;20598;-61
2023/07/01 12:59:14;;;;;;;5.95;1.15;;;20.80;99.90;;;;;;5068232;28;20655;-60